sensor_id;sensor_type;location;lat;lon;timestamp;temperature;humidity
1135;DHT22;556;53.550;10.048;2022-08-03T00:00:59;26.00;44.00
1135;DHT22;556;53.550;10.048;2022-08-03T00:03:26;26.00;44.70
1135;DHT22;556;53.550;10.048;2022-08-03T00:05:54;25.90;44.20
1135;DHT22;556;53.550;10.048;2022-08-03T00:08:21;25.90;44.30
1135;DHT22;556;53.550;10.048;2022-08-03T00:10:48;25.90;44.30
1135;DHT22;556;53.550;10.048;2022-08-03T00:13:16;25.80;43.90
1135;DHT22;556;53.550;10.048;2022-08-03T00:15:44;25.70;44.50
1135;DHT22;556;53.550;10.048;2022-08-03T00:18:12;25.60;44.20
1135;DHT22;556;53.550;10.048;2022-08-03T00:20:39;25.60;44.60
1135;DHT22;556;53.550;10.048;2022-08-03T00:23:07;25.60;44.70
1135;DHT22;556;53.550;10.048;2022-08-03T00:25:35;25.50;44.80
1135;DHT22;556;53.550;10.048;2022-08-03T00:28:03;25.50;44.90
1135;DHT22;556;53.550;10.048;2022-08-03T00:30:31;25.40;45.00
1135;DHT22;556;53.550;10.048;2022-08-03T00:33:00;25.50;45.10
1135;DHT22;556;53.550;10.048;2022-08-03T00:35:27;25.40;45.10
1135;DHT22;556;53.550;10.048;2022-08-03T00:37:55;25.40;45.50
1135;DHT22;556;53.550;10.048;2022-08-03T00:40:23;25.40;45.20
1135;DHT22;556;53.550;10.048;2022-08-03T00:42:52;25.30;44.90
1135;DHT22;556;53.550;10.048;2022-08-03T00:45:20;25.20;45.40
1135;DHT22;556;53.550;10.048;2022-08-03T00:47:48;25.20;45.50
1135;DHT22;556;53.550;10.048;2022-08-03T00:50:16;25.20;45.50
1135;DHT22;556;53.550;10.048;2022-08-03T00:52:44;25.10;45.50
1135;DHT22;556;53.550;10.048;2022-08-03T00:55:12;25.10;46.20
1135;DHT22;556;53.550;10.048;2022-08-03T00:57:41;25.10;45.70
1135;DHT22;556;53.550;10.048;2022-08-03T01:00:10;25.00;45.80
1135;DHT22;556;53.550;10.048;2022-08-03T01:02:38;25.00;45.90
1135;DHT22;556;53.550;10.048;2022-08-03T01:05:06;24.90;46.40
1135;DHT22;556;53.550;10.048;2022-08-03T01:07:40;24.90;46.00
1135;DHT22;556;53.550;10.048;2022-08-03T01:10:14;24.90;46.10
1135;DHT22;556;53.550;10.048;2022-08-03T01:12:50;24.90;46.10
1135;DHT22;556;53.550;10.048;2022-08-03T01:15:24;24.90;46.20
1135;DHT22;556;53.550;10.048;2022-08-03T01:17:56;24.80;45.80
1135;DHT22;556;53.550;10.048;2022-08-03T01:20:28;24.80;46.20
1135;DHT22;556;53.550;10.048;2022-08-03T01:23:06;24.70;46.20
1135;DHT22;556;53.550;10.048;2022-08-03T01:25:47;24.70;46.30
1135;DHT22;556;53.550;10.048;2022-08-03T01:28:28;24.70;45.90
1135;DHT22;556;53.550;10.048;2022-08-03T01:31:04;24.60;46.40
1135;DHT22;556;53.550;10.048;2022-08-03T01:33:36;24.60;46.40
1135;DHT22;556;53.550;10.048;2022-08-03T01:36:08;24.50;46.40
1135;DHT22;556;53.550;10.048;2022-08-03T01:38:41;24.50;46.50
1135;DHT22;556;53.550;10.048;2022-08-03T01:41:12;24.50;46.60
1135;DHT22;556;53.550;10.048;2022-08-03T01:43:43;24.50;46.60
1135;DHT22;556;53.550;10.048;2022-08-03T01:46:16;24.50;46.70
1135;DHT22;556;53.550;10.048;2022-08-03T01:48:47;24.40;46.70
1135;DHT22;556;53.550;10.048;2022-08-03T01:51:15;24.30;47.20
1135;DHT22;556;53.550;10.048;2022-08-03T01:53:45;24.30;46.80
1135;DHT22;556;53.550;10.048;2022-08-03T01:56:14;24.20;46.80
1135;DHT22;556;53.550;10.048;2022-08-03T01:58:43;24.20;47.00
1135;DHT22;556;53.550;10.048;2022-08-03T02:01:14;24.20;47.00
1135;DHT22;556;53.550;10.048;2022-08-03T02:03:43;24.20;47.10
1135;DHT22;556;53.550;10.048;2022-08-03T02:06:11;24.10;47.10
1135;DHT22;556;53.550;10.048;2022-08-03T02:08:40;24.10;47.20
1135;DHT22;556;53.550;10.048;2022-08-03T02:11:07;24.10;47.20
1135;DHT22;556;53.550;10.048;2022-08-03T02:13:34;24.00;47.20
1135;DHT22;556;53.550;10.048;2022-08-03T02:16:03;24.00;47.20
1135;DHT22;556;53.550;10.048;2022-08-03T02:18:33;24.00;47.30
1135;DHT22;556;53.550;10.048;2022-08-03T02:21:01;24.00;47.30
1135;DHT22;556;53.550;10.048;2022-08-03T02:23:29;24.00;47.40
1135;DHT22;556;53.550;10.048;2022-08-03T02:25:59;24.00;47.40
1135;DHT22;556;53.550;10.048;2022-08-03T02:28:32;24.00;47.50
1135;DHT22;556;53.550;10.048;2022-08-03T02:31:03;24.00;47.60
1135;DHT22;556;53.550;10.048;2022-08-03T02:33:38;23.90;47.60
1135;DHT22;556;53.550;10.048;2022-08-03T02:36:08;23.90;47.60
1135;DHT22;556;53.550;10.048;2022-08-03T02:38:40;23.90;47.30
1135;DHT22;556;53.550;10.048;2022-08-03T02:41:14;23.80;47.60
1135;DHT22;556;53.550;10.048;2022-08-03T02:43:44;23.80;47.70
1135;DHT22;556;53.550;10.048;2022-08-03T02:46:13;23.80;47.80
1135;DHT22;556;53.550;10.048;2022-08-03T02:48:46;23.80;47.80
1135;DHT22;556;53.550;10.048;2022-08-03T02:51:16;23.80;48.40
1135;DHT22;556;53.550;10.048;2022-08-03T02:53:45;23.70;47.80
1135;DHT22;556;53.550;10.048;2022-08-03T02:56:13;23.70;47.90
1135;DHT22;556;53.550;10.048;2022-08-03T02:58:43;23.70;48.00
1135;DHT22;556;53.550;10.048;2022-08-03T03:01:11;23.70;48.00
1135;DHT22;556;53.550;10.048;2022-08-03T03:03:39;23.70;48.00
1135;DHT22;556;53.550;10.048;2022-08-03T03:06:10;23.70;48.00
1135;DHT22;556;53.550;10.048;2022-08-03T03:08:38;23.70;48.10
1135;DHT22;556;53.550;10.048;2022-08-03T03:11:09;23.70;48.10
1135;DHT22;556;53.550;10.048;2022-08-03T03:13:37;23.70;48.10
1135;DHT22;556;53.550;10.048;2022-08-03T03:16:05;23.70;48.10
1135;DHT22;556;53.550;10.048;2022-08-03T03:18:34;23.70;48.10
1135;DHT22;556;53.550;10.048;2022-08-03T03:21:03;23.70;48.20
1135;DHT22;556;53.550;10.048;2022-08-03T03:23:33;23.70;48.20
1135;DHT22;556;53.550;10.048;2022-08-03T03:26:01;23.70;48.30
1135;DHT22;556;53.550;10.048;2022-08-03T03:28:29;23.70;48.30
1135;DHT22;556;53.550;10.048;2022-08-03T03:30:57;23.70;48.30
1135;DHT22;556;53.550;10.048;2022-08-03T03:33:25;23.60;48.30
1135;DHT22;556;53.550;10.048;2022-08-03T03:35:52;23.60;48.30
1135;DHT22;556;53.550;10.048;2022-08-03T03:38:20;23.70;48.40
1135;DHT22;556;53.550;10.048;2022-08-03T03:40:48;23.60;48.40
1135;DHT22;556;53.550;10.048;2022-08-03T03:43:16;23.60;48.40
1135;DHT22;556;53.550;10.048;2022-08-03T03:45:44;23.60;48.40
1135;DHT22;556;53.550;10.048;2022-08-03T03:48:11;23.60;48.40
1135;DHT22;556;53.550;10.048;2022-08-03T03:50:38;23.60;48.50
1135;DHT22;556;53.550;10.048;2022-08-03T03:53:08;23.60;48.50
1135;DHT22;556;53.550;10.048;2022-08-03T03:55:35;23.60;48.60
1135;DHT22;556;53.550;10.048;2022-08-03T03:58:04;23.60;48.60
1135;DHT22;556;53.550;10.048;2022-08-03T04:00:31;23.60;48.60
1135;DHT22;556;53.550;10.048;2022-08-03T04:02:58;23.60;48.60
1135;DHT22;556;53.550;10.048;2022-08-03T04:05:26;23.60;48.60
1135;DHT22;556;53.550;10.048;2022-08-03T04:08:12;23.70;48.60
1135;DHT22;556;53.550;10.048;2022-08-03T04:11:02;23.60;48.20
1135;DHT22;556;53.550;10.048;2022-08-03T04:13:37;23.70;48.70
1135;DHT22;556;53.550;10.048;2022-08-03T04:16:07;23.70;48.60
1135;DHT22;556;53.550;10.048;2022-08-03T04:18:38;23.80;48.70
1135;DHT22;556;53.550;10.048;2022-08-03T04:21:09;23.80;48.70
1135;DHT22;556;53.550;10.048;2022-08-03T04:23:40;23.80;48.60
1135;DHT22;556;53.550;10.048;2022-08-03T04:26:10;23.90;48.70
1135;DHT22;556;53.550;10.048;2022-08-03T04:28:40;23.90;48.70
1135;DHT22;556;53.550;10.048;2022-08-03T04:31:09;23.90;48.60
1135;DHT22;556;53.550;10.048;2022-08-03T04:33:37;24.00;48.70
1135;DHT22;556;53.550;10.048;2022-08-03T04:36:08;24.00;48.70
1135;DHT22;556;53.550;10.048;2022-08-03T04:38:37;24.00;48.50
1135;DHT22;556;53.550;10.048;2022-08-03T04:41:06;24.10;48.60
1135;DHT22;556;53.550;10.048;2022-08-03T04:43:35;24.20;48.70
1135;DHT22;556;53.550;10.048;2022-08-03T04:46:07;24.20;48.60
1135;DHT22;556;53.550;10.048;2022-08-03T04:48:34;24.20;48.60
1135;DHT22;556;53.550;10.048;2022-08-03T04:51:02;24.20;48.50
1135;DHT22;556;53.550;10.048;2022-08-03T04:53:31;24.30;48.50
1135;DHT22;556;53.550;10.048;2022-08-03T04:56:03;24.30;48.60
1135;DHT22;556;53.550;10.048;2022-08-03T04:58:31;24.30;48.70
1135;DHT22;556;53.550;10.048;2022-08-03T05:00:58;24.30;48.60
1135;DHT22;556;53.550;10.048;2022-08-03T05:03:27;24.30;49.10
1135;DHT22;556;53.550;10.048;2022-08-03T05:05:54;24.40;48.70
1135;DHT22;556;53.550;10.048;2022-08-03T05:08:21;24.40;48.60
1135;DHT22;556;53.550;10.048;2022-08-03T05:10:48;24.50;48.60
1135;DHT22;556;53.550;10.048;2022-08-03T05:13:16;24.50;48.60
1135;DHT22;556;53.550;10.048;2022-08-03T05:15:43;24.60;48.10
1135;DHT22;556;53.550;10.048;2022-08-03T05:18:10;24.60;48.50
1135;DHT22;556;53.550;10.048;2022-08-03T05:20:39;24.70;48.50
1135;DHT22;556;53.550;10.048;2022-08-03T05:23:06;24.70;48.50
1135;DHT22;556;53.550;10.048;2022-08-03T05:25:34;24.80;48.50
1135;DHT22;556;53.550;10.048;2022-08-03T05:28:01;24.80;48.40
1135;DHT22;556;53.550;10.048;2022-08-03T05:30:28;24.80;48.30
1135;DHT22;556;53.550;10.048;2022-08-03T05:32:55;24.90;48.30
1135;DHT22;556;53.550;10.048;2022-08-03T05:35:23;24.90;48.30
1135;DHT22;556;53.550;10.048;2022-08-03T05:37:53;25.00;48.30
1135;DHT22;556;53.550;10.048;2022-08-03T05:40:20;25.00;48.30
1135;DHT22;556;53.550;10.048;2022-08-03T05:42:47;25.10;48.20
1135;DHT22;556;53.550;10.048;2022-08-03T05:45:14;25.10;48.20
1135;DHT22;556;53.550;10.048;2022-08-03T05:47:42;25.10;48.10
1135;DHT22;556;53.550;10.048;2022-08-03T05:50:10;25.20;48.10
1135;DHT22;556;53.550;10.048;2022-08-03T05:52:37;25.30;47.60
1135;DHT22;556;53.550;10.048;2022-08-03T05:55:07;25.30;48.10
1135;DHT22;556;53.550;10.048;2022-08-03T05:57:34;25.40;48.10
1135;DHT22;556;53.550;10.048;2022-08-03T06:00:04;25.40;47.90
1135;DHT22;556;53.550;10.048;2022-08-03T06:02:37;25.40;48.00
1135;DHT22;556;53.550;10.048;2022-08-03T06:05:05;25.50;48.00
1135;DHT22;556;53.550;10.048;2022-08-03T06:07:33;25.50;48.50
1135;DHT22;556;53.550;10.048;2022-08-03T06:10:00;25.50;47.90
1135;DHT22;556;53.550;10.048;2022-08-03T06:12:29;25.60;47.90
1135;DHT22;556;53.550;10.048;2022-08-03T06:14:56;25.60;47.70
1135;DHT22;556;53.550;10.048;2022-08-03T06:17:23;25.70;47.70
1135;DHT22;556;53.550;10.048;2022-08-03T06:19:51;25.80;47.70
1135;DHT22;556;53.550;10.048;2022-08-03T06:22:19;25.80;47.60
1135;DHT22;556;53.550;10.048;2022-08-03T06:24:46;25.90;47.60
1135;DHT22;556;53.550;10.048;2022-08-03T06:27:13;26.00;47.50
1135;DHT22;556;53.550;10.048;2022-08-03T06:29:42;26.00;47.50
1135;DHT22;556;53.550;10.048;2022-08-03T06:32:09;26.00;47.40
1135;DHT22;556;53.550;10.048;2022-08-03T06:34:36;26.10;47.40
1135;DHT22;556;53.550;10.048;2022-08-03T06:37:03;26.20;47.40
1135;DHT22;556;53.550;10.048;2022-08-03T06:39:30;26.30;47.30
1135;DHT22;556;53.550;10.048;2022-08-03T06:41:57;26.30;47.20
1135;DHT22;556;53.550;10.048;2022-08-03T06:44:25;26.40;47.10
1135;DHT22;556;53.550;10.048;2022-08-03T06:46:53;26.40;47.00
1135;DHT22;556;53.550;10.048;2022-08-03T06:49:20;26.50;47.00
1135;DHT22;556;53.550;10.048;2022-08-03T06:51:47;26.60;47.00
1135;DHT22;556;53.550;10.048;2022-08-03T06:54:17;26.60;46.90
1135;DHT22;556;53.550;10.048;2022-08-03T06:56:44;26.70;46.80
1135;DHT22;556;53.550;10.048;2022-08-03T06:59:11;26.80;46.70
1135;DHT22;556;53.550;10.048;2022-08-03T07:01:38;26.90;46.70
1135;DHT22;556;53.550;10.048;2022-08-03T07:04:06;26.90;46.60
1135;DHT22;556;53.550;10.048;2022-08-03T07:06:33;27.00;46.10
1135;DHT22;556;53.550;10.048;2022-08-03T07:09:01;27.10;46.50
1135;DHT22;556;53.550;10.048;2022-08-03T07:11:28;27.20;46.00
1135;DHT22;556;53.550;10.048;2022-08-03T07:13:55;27.20;46.40
1135;DHT22;556;53.550;10.048;2022-08-03T07:16:23;27.30;46.30
1135;DHT22;556;53.550;10.048;2022-08-03T07:18:50;27.50;46.30
1135;DHT22;556;53.550;10.048;2022-08-03T07:21:18;27.50;46.10
1135;DHT22;556;53.550;10.048;2022-08-03T07:23:45;27.70;46.00
1135;DHT22;556;53.550;10.048;2022-08-03T07:26:12;27.80;46.40
1135;DHT22;556;53.550;10.048;2022-08-03T07:28:39;27.90;45.70
1135;DHT22;556;53.550;10.048;2022-08-03T07:31:06;28.00;45.70
1135;DHT22;556;53.550;10.048;2022-08-03T07:33:33;28.20;45.60
1135;DHT22;556;53.550;10.048;2022-08-03T07:36:00;28.30;45.50
1135;DHT22;556;53.550;10.048;2022-08-03T07:38:29;28.50;45.30
1135;DHT22;556;53.550;10.048;2022-08-03T07:40:56;28.70;45.10
1135;DHT22;556;53.550;10.048;2022-08-03T07:43:23;28.80;45.00
1135;DHT22;556;53.550;10.048;2022-08-03T07:45:50;28.90;44.90
1135;DHT22;556;53.550;10.048;2022-08-03T07:48:17;29.00;44.80
1135;DHT22;556;53.550;10.048;2022-08-03T07:50:44;29.00;44.70
1135;DHT22;556;53.550;10.048;2022-08-03T07:53:12;29.10;44.70
1135;DHT22;556;53.550;10.048;2022-08-03T07:55:40;29.20;44.60
1135;DHT22;556;53.550;10.048;2022-08-03T07:58:09;29.30;44.40
1135;DHT22;556;53.550;10.048;2022-08-03T08:00:37;29.40;44.20
1135;DHT22;556;53.550;10.048;2022-08-03T08:03:04;29.50;44.00
1135;DHT22;556;53.550;10.048;2022-08-03T08:05:31;29.50;43.80
1135;DHT22;556;53.550;10.048;2022-08-03T08:07:58;29.50;43.00
1135;DHT22;556;53.550;10.048;2022-08-03T08:10:26;29.60;43.40
1135;DHT22;556;53.550;10.048;2022-08-03T08:12:56;29.70;43.20
1135;DHT22;556;53.550;10.048;2022-08-03T08:15:24;29.80;43.00
1135;DHT22;556;53.550;10.048;2022-08-03T08:17:53;30.00;42.90
1135;DHT22;556;53.550;10.048;2022-08-03T08:20:22;30.10;42.70
1135;DHT22;556;53.550;10.048;2022-08-03T08:22:49;30.20;42.50
1135;DHT22;556;53.550;10.048;2022-08-03T08:25:17;30.20;42.30
1135;DHT22;556;53.550;10.048;2022-08-03T08:27:46;30.30;42.20
1135;DHT22;556;53.550;10.048;2022-08-03T08:30:17;30.30;42.00
1135;DHT22;556;53.550;10.048;2022-08-03T08:32:45;30.30;41.80
1135;DHT22;556;53.550;10.048;2022-08-03T08:35:12;30.40;41.20
1135;DHT22;556;53.550;10.048;2022-08-03T08:37:39;30.40;41.50
1135;DHT22;556;53.550;10.048;2022-08-03T08:40:08;30.40;41.30
1135;DHT22;556;53.550;10.048;2022-08-03T08:42:36;30.50;41.30
1135;DHT22;556;53.550;10.048;2022-08-03T08:45:05;30.50;41.10
1135;DHT22;556;53.550;10.048;2022-08-03T08:47:37;30.60;41.00
1135;DHT22;556;53.550;10.048;2022-08-03T08:50:05;30.70;41.00
1135;DHT22;556;53.550;10.048;2022-08-03T08:52:34;30.70;40.90
1135;DHT22;556;53.550;10.048;2022-08-03T08:55:03;30.80;40.80
1135;DHT22;556;53.550;10.048;2022-08-03T08:57:35;30.80;40.60
1135;DHT22;556;53.550;10.048;2022-08-03T09:00:05;30.90;40.50
1135;DHT22;556;53.550;10.048;2022-08-03T09:02:35;30.90;40.50
1135;DHT22;556;53.550;10.048;2022-08-03T09:05:03;31.00;40.50
1135;DHT22;556;53.550;10.048;2022-08-03T09:07:31;31.00;40.40
1135;DHT22;556;53.550;10.048;2022-08-03T09:09:58;31.00;40.40
1135;DHT22;556;53.550;10.048;2022-08-03T09:12:25;31.10;40.30
1135;DHT22;556;53.550;10.048;2022-08-03T09:14:53;31.20;39.70
1135;DHT22;556;53.550;10.048;2022-08-03T09:17:21;31.20;40.00
1135;DHT22;556;53.550;10.048;2022-08-03T09:20:04;31.30;40.00
1135;DHT22;556;53.550;10.048;2022-08-03T09:22:32;31.40;39.90
1135;DHT22;556;53.550;10.048;2022-08-03T09:25:02;31.40;39.90
1135;DHT22;556;53.550;10.048;2022-08-03T09:27:40;31.30;39.50
1135;DHT22;556;53.550;10.048;2022-08-03T09:30:12;31.30;39.90
1135;DHT22;556;53.550;10.048;2022-08-03T09:32:40;31.30;39.80
1135;DHT22;556;53.550;10.048;2022-08-03T09:35:09;31.30;39.80
1135;DHT22;556;53.550;10.048;2022-08-03T09:37:37;31.50;39.30
1135;DHT22;556;53.550;10.048;2022-08-03T09:40:05;31.50;39.10
1135;DHT22;556;53.550;10.048;2022-08-03T09:42:32;31.50;39.60
1135;DHT22;556;53.550;10.048;2022-08-03T09:45:03;31.70;39.80
1135;DHT22;556;53.550;10.048;2022-08-03T09:47:32;31.70;39.40
1135;DHT22;556;53.550;10.048;2022-08-03T09:50:03;31.70;39.30
1135;DHT22;556;53.550;10.048;2022-08-03T09:52:33;31.70;39.20
1135;DHT22;556;53.550;10.048;2022-08-03T09:55:01;31.80;39.20
1135;DHT22;556;53.550;10.048;2022-08-03T09:57:33;31.90;38.60
1135;DHT22;556;53.550;10.048;2022-08-03T10:00:08;31.90;39.00
1135;DHT22;556;53.550;10.048;2022-08-03T10:02:40;31.90;38.90
1135;DHT22;556;53.550;10.048;2022-08-03T10:05:10;31.90;39.00
1135;DHT22;556;53.550;10.048;2022-08-03T10:07:46;32.00;38.90
1135;DHT22;556;53.550;10.048;2022-08-03T10:10:13;32.00;38.80
1135;DHT22;556;53.550;10.048;2022-08-03T10:12:41;32.10;38.80
1135;DHT22;556;53.550;10.048;2022-08-03T10:15:09;32.20;38.60
1135;DHT22;556;53.550;10.048;2022-08-03T10:17:38;32.20;38.40
1135;DHT22;556;53.550;10.048;2022-08-03T10:20:08;32.20;38.50
1135;DHT22;556;53.550;10.048;2022-08-03T10:22:37;32.10;38.40
1135;DHT22;556;53.550;10.048;2022-08-03T10:25:10;32.10;38.50
1135;DHT22;556;53.550;10.048;2022-08-03T10:27:39;32.10;38.50
1135;DHT22;556;53.550;10.048;2022-08-03T10:30:08;32.10;38.50
1135;DHT22;556;53.550;10.048;2022-08-03T10:32:39;32.10;38.40
1135;DHT22;556;53.550;10.048;2022-08-03T10:35:10;32.20;38.40
1135;DHT22;556;53.550;10.048;2022-08-03T10:37:40;32.20;38.40
1135;DHT22;556;53.550;10.048;2022-08-03T10:40:13;32.30;38.30
1135;DHT22;556;53.550;10.048;2022-08-03T10:42:42;32.40;38.30
1135;DHT22;556;53.550;10.048;2022-08-03T10:45:15;32.40;38.10
1135;DHT22;556;53.550;10.048;2022-08-03T10:47:44;32.40;38.10
1135;DHT22;556;53.550;10.048;2022-08-03T10:50:13;32.50;38.10
1135;DHT22;556;53.550;10.048;2022-08-03T10:52:54;32.50;38.00
1135;DHT22;556;53.550;10.048;2022-08-03T10:55:33;32.60;37.90
1135;DHT22;556;53.550;10.048;2022-08-03T10:58:45;32.60;37.70
1135;DHT22;556;53.550;10.048;2022-08-03T11:01:15;32.60;37.70
1135;DHT22;556;53.550;10.048;2022-08-03T11:04:14;32.70;37.70
1135;DHT22;556;53.550;10.048;2022-08-03T11:06:43;32.80;37.70
1135;DHT22;556;53.550;10.048;2022-08-03T11:09:14;32.70;37.60
1135;DHT22;556;53.550;10.048;2022-08-03T11:11:45;32.80;37.60
1135;DHT22;556;53.550;10.048;2022-08-03T11:14:14;32.90;37.50
1135;DHT22;556;53.550;10.048;2022-08-03T11:16:43;32.90;37.40
1135;DHT22;556;53.550;10.048;2022-08-03T11:19:13;32.90;37.40
1135;DHT22;556;53.550;10.048;2022-08-03T11:21:56;32.90;37.40
1135;DHT22;556;53.550;10.048;2022-08-03T11:24:57;32.90;37.30
1135;DHT22;556;53.550;10.048;2022-08-03T11:27:27;32.90;37.30
1135;DHT22;556;53.550;10.048;2022-08-03T11:29:57;33.00;37.30
1135;DHT22;556;53.550;10.048;2022-08-03T11:32:58;33.10;36.70
1135;DHT22;556;53.550;10.048;2022-08-03T11:35:28;33.20;37.00
1135;DHT22;556;53.550;10.048;2022-08-03T11:38:08;33.50;36.30
1135;DHT22;556;53.550;10.048;2022-08-03T11:40:46;33.50;36.80
1135;DHT22;556;53.550;10.048;2022-08-03T11:43:43;33.50;36.70
1135;DHT22;556;53.550;10.048;2022-08-03T11:46:12;33.70;36.00
1135;DHT22;556;53.550;10.048;2022-08-03T11:48:43;33.70;36.40
1135;DHT22;556;53.550;10.048;2022-08-03T11:51:19;33.90;37.00
1135;DHT22;556;53.550;10.048;2022-08-03T11:53:51;33.90;36.20
1135;DHT22;556;53.550;10.048;2022-08-03T11:56:18;34.00;36.10
1135;DHT22;556;53.550;10.048;2022-08-03T11:58:48;34.10;36.00
1135;DHT22;556;53.550;10.048;2022-08-03T12:01:17;34.10;35.90
1135;DHT22;556;53.550;10.048;2022-08-03T12:03:45;34.00;35.80
1135;DHT22;556;53.550;10.048;2022-08-03T12:06:13;34.00;35.30
1135;DHT22;556;53.550;10.048;2022-08-03T12:08:42;34.00;35.90
1135;DHT22;556;53.550;10.048;2022-08-03T12:11:11;34.00;35.70
1135;DHT22;556;53.550;10.048;2022-08-03T12:13:40;34.10;35.70
1135;DHT22;556;53.550;10.048;2022-08-03T12:16:09;34.10;35.10
1135;DHT22;556;53.550;10.048;2022-08-03T12:18:36;34.10;35.60
1135;DHT22;556;53.550;10.048;2022-08-03T12:21:06;34.20;35.60
1135;DHT22;556;53.550;10.048;2022-08-03T12:23:33;34.20;35.60
1135;DHT22;556;53.550;10.048;2022-08-03T12:26:02;34.20;35.60
1135;DHT22;556;53.550;10.048;2022-08-03T12:28:29;34.10;35.50
1135;DHT22;556;53.550;10.048;2022-08-03T12:31:00;34.10;34.90
1135;DHT22;556;53.550;10.048;2022-08-03T12:33:29;34.10;35.30
1135;DHT22;556;53.550;10.048;2022-08-03T12:36:05;34.00;35.00
1135;DHT22;556;53.550;10.048;2022-08-03T12:38:33;34.00;35.00
1135;DHT22;556;53.550;10.048;2022-08-03T12:41:03;34.10;35.00
1135;DHT22;556;53.550;10.048;2022-08-03T12:43:31;34.10;34.90
1135;DHT22;556;53.550;10.048;2022-08-03T12:46:12;34.30;34.90
1135;DHT22;556;53.550;10.048;2022-08-03T12:49:05;34.50;34.70
1135;DHT22;556;53.550;10.048;2022-08-03T12:51:34;35.30;34.10
1135;DHT22;556;53.550;10.048;2022-08-03T12:54:03;35.50;34.50
1135;DHT22;556;53.550;10.048;2022-08-03T12:56:30;36.20;34.20
1135;DHT22;556;53.550;10.048;2022-08-03T12:58:57;37.10;33.80
1135;DHT22;556;53.550;10.048;2022-08-03T13:01:25;37.80;33.10
1135;DHT22;556;53.550;10.048;2022-08-03T13:03:53;38.50;32.60
1135;DHT22;556;53.550;10.048;2022-08-03T13:06:23;38.90;32.00
1135;DHT22;556;53.550;10.048;2022-08-03T13:09:02;39.40;31.60
1135;DHT22;556;53.550;10.048;2022-08-03T13:11:30;39.80;31.00
1135;DHT22;556;53.550;10.048;2022-08-03T13:13:57;40.30;30.80
1135;DHT22;556;53.550;10.048;2022-08-03T13:16:24;40.70;30.40
1135;DHT22;556;53.550;10.048;2022-08-03T13:18:52;41.00;30.00
1135;DHT22;556;53.550;10.048;2022-08-03T13:21:21;41.60;29.90
1135;DHT22;556;53.550;10.048;2022-08-03T13:23:49;41.90;29.50
1135;DHT22;556;53.550;10.048;2022-08-03T13:26:16;42.50;29.40
1135;DHT22;556;53.550;10.048;2022-08-03T13:28:43;42.90;29.00
1135;DHT22;556;53.550;10.048;2022-08-03T13:31:10;42.90;28.70
1135;DHT22;556;53.550;10.048;2022-08-03T13:33:38;42.90;28.60
1135;DHT22;556;53.550;10.048;2022-08-03T13:36:06;42.90;28.50
1135;DHT22;556;53.550;10.048;2022-08-03T13:38:34;43.00;28.30
1135;DHT22;556;53.550;10.048;2022-08-03T13:41:01;43.00;28.70
1135;DHT22;556;53.550;10.048;2022-08-03T13:43:29;43.10;28.00
1135;DHT22;556;53.550;10.048;2022-08-03T13:45:56;43.10;27.80
1135;DHT22;556;53.550;10.048;2022-08-03T13:48:23;43.10;27.70
1135;DHT22;556;53.550;10.048;2022-08-03T13:50:50;43.10;27.60
1135;DHT22;556;53.550;10.048;2022-08-03T13:53:17;43.10;27.60
1135;DHT22;556;53.550;10.048;2022-08-03T13:55:46;43.50;27.50
1135;DHT22;556;53.550;10.048;2022-08-03T13:58:13;43.90;27.20
1135;DHT22;556;53.550;10.048;2022-08-03T14:00:40;44.30;26.80
1135;DHT22;556;53.550;10.048;2022-08-03T14:03:08;44.30;26.60
1135;DHT22;556;53.550;10.048;2022-08-03T14:05:36;44.20;26.50
1135;DHT22;556;53.550;10.048;2022-08-03T14:08:07;44.20;26.50
1135;DHT22;556;53.550;10.048;2022-08-03T14:10:36;44.30;26.40
1135;DHT22;556;53.550;10.048;2022-08-03T14:13:06;44.50;26.40
1135;DHT22;556;53.550;10.048;2022-08-03T14:15:33;44.40;26.20
1135;DHT22;556;53.550;10.048;2022-08-03T14:18:00;44.30;26.10
1135;DHT22;556;53.550;10.048;2022-08-03T14:20:28;44.40;26.10
1135;DHT22;556;53.550;10.048;2022-08-03T14:22:55;44.50;26.00
1135;DHT22;556;53.550;10.048;2022-08-03T14:25:22;44.50;25.90
1135;DHT22;556;53.550;10.048;2022-08-03T14:27:49;44.50;25.80
1135;DHT22;556;53.550;10.048;2022-08-03T14:30:18;44.30;25.70
1135;DHT22;556;53.550;10.048;2022-08-03T14:32:45;43.60;25.70
1135;DHT22;556;53.550;10.048;2022-08-03T14:35:12;42.90;26.10
1135;DHT22;556;53.550;10.048;2022-08-03T14:37:39;42.00;26.10
1135;DHT22;556;53.550;10.048;2022-08-03T14:40:07;41.90;26.60
1135;DHT22;556;53.550;10.048;2022-08-03T14:42:34;41.80;26.50
1135;DHT22;556;53.550;10.048;2022-08-03T14:45:02;42.00;26.50
1135;DHT22;556;53.550;10.048;2022-08-03T14:47:30;42.30;26.40
1135;DHT22;556;53.550;10.048;2022-08-03T14:49:58;42.60;26.30
1135;DHT22;556;53.550;10.048;2022-08-03T14:52:25;43.10;26.10
1135;DHT22;556;53.550;10.048;2022-08-03T14:54:52;43.60;26.00
1135;DHT22;556;53.550;10.048;2022-08-03T14:57:19;43.80;25.80
1135;DHT22;556;53.550;10.048;2022-08-03T14:59:46;44.00;25.70
1135;DHT22;556;53.550;10.048;2022-08-03T15:02:13;44.30;25.60
1135;DHT22;556;53.550;10.048;2022-08-03T15:07:10;44.60;25.00
1135;DHT22;556;53.550;10.048;2022-08-03T15:09:37;44.90;25.30
1135;DHT22;556;53.550;10.048;2022-08-03T15:12:05;45.00;25.00
1135;DHT22;556;53.550;10.048;2022-08-03T15:14:32;45.20;25.00
1135;DHT22;556;53.550;10.048;2022-08-03T15:16:59;45.50;25.00
1135;DHT22;556;53.550;10.048;2022-08-03T15:19:26;45.80;25.00
1135;DHT22;556;53.550;10.048;2022-08-03T15:21:55;46.10;24.90
1135;DHT22;556;53.550;10.048;2022-08-03T15:24:22;46.20;24.80
1135;DHT22;556;53.550;10.048;2022-08-03T15:26:49;46.00;24.70
1135;DHT22;556;53.550;10.048;2022-08-03T15:29:17;45.80;24.70
1135;DHT22;556;53.550;10.048;2022-08-03T15:31:44;45.80;24.80
1135;DHT22;556;53.550;10.048;2022-08-03T15:34:11;46.10;24.70
1135;DHT22;556;53.550;10.048;2022-08-03T15:36:38;46.40;24.60
1135;DHT22;556;53.550;10.048;2022-08-03T15:39:07;47.10;24.40
1135;DHT22;556;53.550;10.048;2022-08-03T15:41:34;47.60;24.00
1135;DHT22;556;53.550;10.048;2022-08-03T15:44:02;47.60;23.80
1135;DHT22;556;53.550;10.048;2022-08-03T15:46:29;46.90;23.70
1135;DHT22;556;53.550;10.048;2022-08-03T15:48:56;46.40;23.80
1135;DHT22;556;53.550;10.048;2022-08-03T15:51:23;45.60;24.00
1135;DHT22;556;53.550;10.048;2022-08-03T15:53:50;44.80;24.20
1135;DHT22;556;53.550;10.048;2022-08-03T15:56:19;44.10;24.50
1135;DHT22;556;53.550;10.048;2022-08-03T15:58:46;43.50;24.80
1135;DHT22;556;53.550;10.048;2022-08-03T16:01:13;43.10;24.90
1135;DHT22;556;53.550;10.048;2022-08-03T16:03:40;42.70;25.00
1135;DHT22;556;53.550;10.048;2022-08-03T16:06:07;42.60;25.20
1135;DHT22;556;53.550;10.048;2022-08-03T16:08:34;42.80;25.10
1135;DHT22;556;53.550;10.048;2022-08-03T16:11:02;42.90;25.00
1135;DHT22;556;53.550;10.048;2022-08-03T16:13:30;42.90;24.90
1135;DHT22;556;53.550;10.048;2022-08-03T16:15:57;42.80;24.90
1135;DHT22;556;53.550;10.048;2022-08-03T16:18:24;42.60;24.90